Time;durP1;ratioP1;P1;durP2;ratioP2;P2;SDS_P1;SDS_P2;PMS_P1;PMS_P2;Temp;Humidity;BMP_temperature;BMP_pressure;BME280_temperature;BME280_humidity;BME280_pressure;Samples;Min_cycle;Max_cycle;Signal;HPM_P1;HPM_P2
2022/08/23 00:02:00;;;;;;;;;;;;;;;;;;6150019;23;20021;-61
2022/08/23 00:04:29;;;;;;;6.18;3.08;;;;;;;;;;6150431;23;19920;-53
2022/08/23 00:07:01;;;;;;;12.55;3.60;;;;;;;;;;6149925;23;20749;-56
2022/08/23 00:09:36;;;;;;;13.05;3.45;;;;;;;;;;6150557;23;20025;-56
2022/08/23 00:12:09;;;;;;;9.38;3.45;;;;;;;;;;6150736;23;20033;-57
2022/08/23 00:14:45;;;;;;;6.80;3.38;;;;;;;;;;6151311;23;20088;-55
2022/08/23 00:17:13;;;;;;;8.23;4.05;;;;;;;;;;6148343;23;20030;-53
2022/08/23 00:20:00;;;;;;;8.80;4.37;;;;;;;;;;6150827;23;20116;-54
2022/08/23 00:22:35;;;;;;;8.95;3.70;;;;;;;;;;6150568;23;20036;-57
2022/08/23 00:25:02;;;;;;;;;;;;;;;;;;6151157;23;20113;-49
2022/08/23 00:27:30;;;;;;;5.38;3.40;;;;;;;;;;6149528;23;20327;-62
2022/08/23 00:30:05;;;;;;;7.47;3.30;;;;;;;;;;6150129;23;20061;-62
2022/08/23 00:32:34;;;;;;;8.45;4.03;;;;;;;;;;6123150;23;20026;-62
2022/08/23 00:35:03;;;;;;;4.95;3.42;;;;;;;;;;6150281;23;20025;-62
2022/08/23 00:37:37;;;;;;;7.20;3.47;;;;;;;;;;6150411;23;20057;-62
2022/08/23 00:40:04;;;;;;;;;;;;;;;;;;6150317;23;20026;-62
2022/08/23 00:48:13;;;;;;;9.15;3.60;;;;;;;;;;6149427;23;20186;-51
2022/08/23 00:51:04;;;;;;;9.48;3.70;;;;;;;;;;6150893;23;20083;-48
2022/08/23 00:53:33;;;;;;;6.72;3.15;;;;;;;;;;6150025;23;20026;-49
2022/08/23 00:56:11;;;;;;;5.70;2.67;;;;;;;;;;6150059;23;20029;-53
2022/08/23 00:58:38;;;;;;;11.65;4.13;;;;;;;;;;6150145;23;20371;-51
2022/08/23 01:01:05;;;;;;;14.52;3.75;;;;;;;;;;6148574;23;20032;-50
2022/08/23 01:03:42;;;;;;;7.68;2.90;;;;;;;;;;6150545;23;20104;-55
2022/08/23 01:06:12;;;;;;;7.22;3.00;;;;;;;;;;6149745;23;20486;-66
2022/08/23 01:08:41;;;;;;;8.70;3.85;;;;;;;;;;6149996;23;20026;-66
2022/08/23 01:11:36;;;;;;;6.35;3.60;;;;;;;;;;6149936;23;20032;-66
2022/08/23 01:14:10;;;;;;;11.13;4.18;;;;;;;;;;6149591;23;20025;-65
2022/08/23 01:16:44;;;;;;;6.70;4.18;;;;;;;;;;6150178;23;20084;-66
2022/08/23 01:19:12;;;;;;;;;;;;;;;;;;6150248;23;20029;-66
2022/08/23 01:21:49;;;;;;;9.32;4.00;;;;;;;;;;6150531;23;19916;-66
2022/08/23 01:24:23;;;;;;;13.95;4.15;;;;;;;;;;6149811;23;20489;-65
2022/08/23 01:27:11;;;;;;;7.72;3.85;;;;;;;;;;6148550;23;20104;-66
2022/08/23 01:29:45;;;;;;;6.82;4.30;;;;;;;;;;6151027;23;20042;-65
2022/08/23 01:32:13;;;;;;;7.53;4.22;;;;;;;;;;6149090;23;20029;-66
2022/08/23 01:34:40;;;;;;;11.32;3.75;;;;;;;;;;6149327;23;20025;-66
2022/08/23 01:37:18;;;;;;;6.68;3.58;;;;;;;;;;6147877;23;20032;-66
2022/08/23 01:39:46;;;;;;;5.65;3.17;;;;;;;;;;6150623;23;20080;-58
2022/08/23 01:42:13;;;;;;;;;;;;;;;;;;6150189;23;20021;-55
2022/08/23 01:44:53;;;;;;;4.75;3.35;;;;;;;;;;6151441;23;20283;-66
2022/08/23 01:47:20;;;;;;;8.18;3.70;;;;;;;;;;6152024;23;20025;-66
2022/08/23 01:49:55;;;;;;;8.30;3.95;;;;;;;;;;6152103;23;20025;-66
2022/08/23 01:52:22;;;;;;;12.38;3.67;;;;;;;;;;6150555;23;20033;-66
2022/08/23 01:54:49;;;;;;;8.07;4.07;;;;;;;;;;6152181;23;20021;-66
2022/08/23 01:57:24;;;;;;;12.13;4.13;;;;;;;;;;6151233;23;20061;-65
2022/08/23 01:59:51;;;;;;;8.63;4.15;;;;;;;;;;6151766;23;20100;-66
2022/08/23 02:02:18;;;;;;;9.18;3.85;;;;;;;;;;6151763;23;20022;-56
2022/08/23 02:04:52;;;;;;;7.57;4.05;;;;;;;;;;6151952;23;20233;-52
2022/08/23 02:07:19;;;;;;;7.95;4.10;;;;;;;;;;6151069;23;20064;-54
2022/08/23 02:09:47;;;;;;;12.82;4.60;;;;;;;;;;6126638;23;20663;-49
2022/08/23 02:12:21;;;;;;;10.48;4.55;;;;;;;;;;6150356;23;20451;-53
2022/08/23 02:14:48;;;;;;;10.00;4.53;;;;;;;;;;6151439;23;20021;-49
2022/08/23 02:17:17;;;;;;;;;;;;;;;;;;6151827;23;20021;-53
2022/08/23 02:19:51;;;;;;;9.50;4.30;;;;;;;;;;6150958;23;19916;-54
2022/08/23 02:22:18;;;;;;;6.90;4.30;;;;;;;;;;6151450;23;20025;-48
2022/08/23 02:24:46;;;;;;;9.45;4.78;;;;;;;;;;6151418;23;20077;-50
2022/08/23 02:27:20;;;;;;;8.25;4.40;;;;;;;;;;6151681;23;20025;-50
2022/08/23 02:29:48;;;;;;;10.95;3.95;;;;;;;;;;6151209;23;20025;-51
2022/08/23 02:32:18;;;;;;;7.10;3.70;;;;;;;;;;6151951;23;20028;-49
2022/08/23 02:34:53;;;;;;;8.52;4.10;;;;;;;;;;6150949;23;20025;-50
2022/08/23 02:37:31;;;;;;;8.73;3.88;;;;;;;;;;6151466;23;20026;-62
2022/08/23 02:40:06;;;;;;;14.65;4.05;;;;;;;;;;6150747;23;20360;-52
2022/08/23 02:42:40;;;;;;;6.45;4.30;;;;;;;;;;6148519;23;20081;-57
2022/08/23 02:45:14;;;;;;;9.52;4.20;;;;;;;;;;6150485;23;20072;-57
2022/08/23 02:47:41;;;;;;;6.93;4.38;;;;;;;;;;6151661;23;20026;-54
2022/08/23 02:50:09;;;;;;;9.32;3.80;;;;;;;;;;6150299;23;20471;-56
2022/08/23 02:52:43;;;;;;;6.15;3.85;;;;;;;;;;6150465;23;20382;-55
2022/08/23 02:55:10;;;;;;;13.70;4.90;;;;;;;;;;6151800;23;20029;-56
2022/08/23 02:57:38;;;;;;;10.07;3.70;;;;;;;;;;6151186;23;20036;-56
2022/08/23 03:00:20;;;;;;;13.32;4.05;;;;;;;;;;6150887;23;20199;-57
2022/08/23 03:02:47;;;;;;;6.68;3.72;;;;;;;;;;6151198;23;20348;-57
2022/08/23 03:05:30;;;;;;;9.50;4.60;;;;;;;;;;6150651;23;20072;-56
2022/08/23 03:07:57;;;;;;;7.38;5.05;;;;;;;;;;6149447;23;20025;-55
2022/08/23 03:10:31;;;;;;;7.55;4.97;;;;;;;;;;6151183;23;20029;-55
2022/08/23 03:12:58;;;;;;;12.30;4.47;;;;;;;;;;6150274;23;20021;-56
2022/08/23 03:15:25;;;;;;;6.15;4.10;;;;;;;;;;6150632;23;20036;-48
2022/08/23 03:17:59;;;;;;;11.38;4.78;;;;;;;;;;6151221;23;20018;-59
2022/08/23 03:20:27;;;;;;;7.13;4.40;;;;;;;;;;6151019;23;20063;-59
2022/08/23 03:22:54;;;;;;;12.35;5.35;;;;;;;;;;6150352;23;20080;-59
2022/08/23 03:25:28;;;;;;;7.97;5.03;;;;;;;;;;6150924;23;20479;-59
2022/08/23 03:27:55;;;;;;;11.52;4.85;;;;;;;;;;6151027;23;20025;-59
2022/08/23 03:30:22;;;;;;;5.47;4.57;;;;;;;;;;6150320;23;20134;-58
2022/08/23 03:32:56;;;;;;;11.55;4.63;;;;;;;;;;6150749;23;20022;-59
2022/08/23 03:35:23;;;;;;;8.27;4.70;;;;;;;;;;6151032;23;20033;-61
2022/08/23 03:37:52;;;;;;;7.75;4.85;;;;;;;;;;6123124;23;20025;-66
2022/08/23 03:40:26;;;;;;;7.93;4.90;;;;;;;;;;6151044;23;20028;-47
2022/08/23 03:43:00;;;;;;;14.40;4.55;;;;;;;;;;6148486;23;20025;-51
2022/08/23 03:45:41;;;;;;;34.45;5.13;;;;;;;;;;6150958;23;20095;-48
2022/08/23 03:48:09;;;;;;;15.68;5.60;;;;;;;;;;6150945;23;20426;-49
2022/08/23 03:50:43;;;;;;;13.07;5.30;;;;;;;;;;6150108;23;20033;-48
2022/08/23 03:53:11;;;;;;;11.52;4.68;;;;;;;;;;6150050;23;20030;-59
2022/08/23 03:55:40;;;;;;;7.28;4.55;;;;;;;;;;6151735;23;20395;-56
2022/08/23 03:58:14;;;;;;;4.88;4.05;;;;;;;;;;6149061;23;20022;-52
2022/08/23 04:00:41;;;;;;;12.52;4.80;;;;;;;;;;6150788;23;20022;-51
2022/08/23 04:03:09;;;;;;;8.55;4.80;;;;;;;;;;6150695;23;20403;-50
2022/08/23 04:05:43;;;;;;;11.10;4.90;;;;;;;;;;6150079;23;20037;-49
2022/08/23 04:08:12;;;;;;;8.23;5.03;;;;;;;;;;6150920;23;20325;-47
2022/08/23 04:10:39;;;;;;;8.88;6.38;;;;;;;;;;6149720;23;20026;-50
2022/08/23 04:13:33;;;;;;;7.80;4.93;;;;;;;;;;6147046;23;20503;-59
2022/08/23 04:16:20;;;;;;;8.75;5.40;;;;;;;;;;6151095;23;20084;-67
2022/08/23 04:19:14;;;;;;;6.47;4.45;;;;;;;;;;6149490;23;20061;-67
2022/08/23 04:22:01;;;;;;;5.53;4.18;;;;;;;;;;6149415;23;20526;-67
2022/08/23 04:24:55;;;;;;;6.45;4.40;;;;;;;;;;6150039;23;20021;-67
2022/08/23 04:28:01;;;;;;;8.98;4.32;;;;;;;;;;6149282;23;20021;-66
2022/08/23 04:30:55;;;;;;;6.28;4.57;;;;;;;;;;6148971;23;20026;-67
2022/08/23 04:33:43;;;;;;;;;;;;;;;;;;6151333;23;20021;-58
2022/08/23 04:36:40;;;;;;;9.43;4.65;;;;;;;;;;6150277;23;19917;-62
2022/08/23 04:39:28;;;;;;;11.48;5.22;;;;;;;;;;6149794;23;20119;-62
2022/08/23 04:42:28;;;;;;;8.60;4.97;;;;;;;;;;6146055;23;20018;-62
2022/08/23 04:45:23;;;;;;;11.07;4.97;;;;;;;;;;6150043;23;20022;-62
2022/08/23 04:48:17;;;;;;;15.27;5.65;;;;;;;;;;6149435;23;20849;-62
2022/08/23 04:51:04;;;;;;;10.13;5.32;;;;;;;;;;6149608;23;20025;-52
2022/08/23 04:53:58;;;;;;;7.88;4.93;;;;;;;;;;6150376;23;20021;-67
2022/08/23 04:56:48;;;;;;;12.38;4.90;;;;;;;;;;6150000;23;20069;-60
2022/08/23 04:59:42;;;;;;;9.65;5.20;;;;;;;;;;6150592;23;20025;-59
2022/08/23 05:02:29;;;;;;;10.02;5.45;;;;;;;;;;6150365;23;20738;-60
2022/08/23 05:05:23;;;;;;;10.65;5.65;;;;;;;;;;6150419;23;20344;-59
2022/08/23 05:08:10;;;;;;;12.40;5.20;;;;;;;;;;6150050;23;20040;-59
2022/08/23 05:11:05;;;;;;;10.40;5.05;;;;;;;;;;6149390;23;20029;-60
2022/08/23 05:13:52;;;;;;;9.50;5.03;;;;;;;;;;6148943;23;20021;-51
2022/08/23 05:16:47;;;;;;;7.07;4.88;;;;;;;;;;6150190;23;20351;-54
2022/08/23 05:19:35;;;;;;;6.73;4.50;;;;;;;;;;6149142;23;20025;-46
2022/08/23 05:22:32;;;;;;;10.75;5.07;;;;;;;;;;6150775;23;20244;-54
2022/08/23 05:25:19;;;;;;;13.98;4.75;;;;;;;;;;6150594;23;20084;-49
2022/08/23 05:28:14;;;;;;;8.23;5.05;;;;;;;;;;6147591;23;20030;-56
2022/08/23 05:31:06;;;;;;;12.02;5.10;;;;;;;;;;6148931;23;20472;-57
2022/08/23 05:34:00;;;;;;;10.38;5.40;;;;;;;;;;6149418;23;20026;-50
2022/08/23 05:36:48;;;;;;;8.40;5.10;;;;;;;;;;6150145;23;20029;-52
2022/08/23 05:39:43;;;;;;;13.63;5.18;;;;;;;;;;6149884;23;20463;-50
2022/08/23 05:42:37;;;;;;;6.70;5.20;;;;;;;;;;6147884;23;20033;-49
2022/08/23 05:45:31;;;;;;;11.52;5.40;;;;;;;;;;6149925;23;20041;-51
2022/08/23 05:48:18;;;;;;;7.13;4.80;;;;;;;;;;6149865;23;20037;-54
2022/08/23 05:51:12;;;;;;;7.90;4.68;;;;;;;;;;6149825;23;20025;-54
2022/08/23 05:54:00;;;;;;;7.28;4.93;;;;;;;;;;6148869;23;20084;-50
2022/08/23 05:56:54;;;;;;;10.15;4.70;;;;;;;;;;6149892;23;20072;-48
2022/08/23 05:59:41;;;;;;;10.57;5.55;;;;;;;;;;6150198;23;20084;-49
2022/08/23 06:02:36;;;;;;;10.13;5.22;;;;;;;;;;6150003;23;20029;-47
2022/08/23 06:05:23;;;;;;;10.35;5.10;;;;;;;;;;6148608;23;20028;-52
2022/08/23 06:08:17;;;;;;;10.30;4.78;;;;;;;;;;6149776;23;20084;-56
2022/08/23 06:11:06;;;;;;;16.17;4.80;;;;;;;;;;6149451;23;20375;-56
2022/08/23 06:14:00;;;;;;;13.45;5.25;;;;;;;;;;6149713;23;20345;-54
2022/08/23 06:16:48;;;;;;;9.60;4.93;;;;;;;;;;6149474;23;20460;-56
2022/08/23 06:19:42;;;;;;;9.40;4.80;;;;;;;;;;6148888;23;20025;-55
2022/08/23 06:22:29;;;;;;;10.30;4.85;;;;;;;;;;6149992;23;20018;-55
2022/08/23 06:25:24;;;;;;;11.15;5.30;;;;;;;;;;6150057;23;20088;-67
2022/08/23 06:28:12;;;;;;;14.10;5.28;;;;;;;;;;6149650;23;20029;-50
2022/08/23 06:31:43;;;;;;;21.23;5.28;;;;;;;;;;6151263;23;20029;-68
2022/08/23 06:34:04;;;;;;;6.55;4.50;;;;;;;;;;6149931;23;20025;-67
2022/08/23 06:36:59;;;;;;;9.50;4.65;;;;;;;;;;6151510;23;20032;-67
2022/08/23 06:39:47;;;;;;;;;;;;;;;;;;6151083;23;20487;-68
2022/08/23 06:42:54;;;;;;;7.05;5.00;;;;;;;;;;6148776;23;19926;-67
2022/08/23 06:45:47;;;;;;;9.98;4.43;;;;;;;;;;6151089;23;20021;-52
2022/08/23 06:48:43;;;;;;;14.05;4.70;;;;;;;;;;6151059;23;20028;-56
2022/08/23 06:51:32;;;;;;;8.37;4.40;;;;;;;;;;6152050;23;20029;-56
2022/08/23 06:54:30;;;;;;;7.65;3.95;;;;;;;;;;6151513;23;20329;-56
2022/08/23 06:57:16;;;;;;;9.32;3.55;;;;;;;;;;6149555;23;20459;-57
2022/08/23 07:00:10;;;;;;;9.43;3.80;;;;;;;;;;6150726;23;20033;-56
2022/08/23 07:02:58;;;;;;;7.53;3.90;;;;;;;;;;6150179;23;20022;-55
2022/08/23 07:05:52;;;;;;;7.72;3.78;;;;;;;;;;6151657;23;20333;-62
2022/08/23 07:08:40;;;;;;;9.82;3.83;;;;;;;;;;6150106;23;20053;-49
2022/08/23 07:11:33;;;;;;;7.95;4.00;;;;;;;;;;6151278;23;20029;-55
2022/08/23 07:14:20;;;;;;;7.65;3.78;;;;;;;;;;6150986;23;20033;-55
2022/08/23 07:17:15;;;;;;;9.68;2.92;;;;;;;;;;6150603;23;20084;-54
2022/08/23 07:20:03;;;;;;;12.07;3.58;;;;;;;;;;6149749;23;20100;-55
2022/08/23 07:22:57;;;;;;;10.80;3.22;;;;;;;;;;6151424;23;20029;-59
2022/08/23 07:25:44;;;;;;;8.75;3.25;;;;;;;;;;6151350;23;20088;-49
2022/08/23 07:28:40;;;;;;;7.60;2.95;;;;;;;;;;6150346;23;20526;-47
2022/08/23 07:31:29;;;;;;;13.45;2.80;;;;;;;;;;6151840;23;20028;-52
2022/08/23 07:34:23;;;;;;;7.38;2.83;;;;;;;;;;6150538;23;20502;-54
2022/08/23 07:37:11;;;;;;;8.38;3.00;;;;;;;;;;6150918;23;20022;-55
2022/08/23 07:40:07;;;;;;;11.82;3.17;;;;;;;;;;6149815;23;20463;-52
2022/08/23 07:43:02;;;;;;;8.63;3.17;;;;;;;;;;6148254;23;20088;-62
2022/08/23 07:45:54;;;;;;;7.40;3.45;;;;;;;;;;6151468;23;20021;-69
2022/08/23 07:48:41;;;;;;;5.70;2.20;;;;;;;;;;6149380;23;20017;-69
2022/08/23 07:51:35;;;;;;;5.13;2.58;;;;;;;;;;6151411;23;20025;-69
2022/08/23 07:54:24;;;;;;;7.43;2.70;;;;;;;;;;6150621;23;20068;-67
2022/08/23 07:57:16;;;;;;;8.18;2.63;;;;;;;;;;6148701;23;20026;-70
2022/08/23 08:00:04;;;;;;;6.35;2.50;;;;;;;;;;6150010;23;20484;-69
2022/08/23 08:02:58;;;;;;;7.47;2.60;;;;;;;;;;6150738;23;20047;-52
2022/08/23 08:05:46;;;;;;;6.70;2.53;;;;;;;;;;6151265;23;20397;-61
2022/08/23 08:08:41;;;;;;;4.18;2.00;;;;;;;;;;6151060;23;20105;-62
2022/08/23 08:11:30;;;;;;;6.25;2.17;;;;;;;;;;6150158;23;20029;-61
2022/08/23 08:14:24;;;;;;;4.97;2.35;;;;;;;;;;6150579;23;20467;-61
2022/08/23 08:17:11;;;;;;;4.80;1.92;;;;;;;;;;6150048;23;20052;-62
2022/08/23 08:20:05;;;;;;;7.18;2.00;;;;;;;;;;6149199;23;20403;-53
2022/08/23 08:22:53;;;;;;;7.00;2.10;;;;;;;;;;6151101;23;20048;-48
2022/08/23 08:25:47;;;;;;;5.43;1.55;;;;;;;;;;6150769;23;20215;-55
2022/08/23 08:28:35;;;;;;;5.97;1.70;;;;;;;;;;6150221;23;20025;-53
2022/08/23 08:31:29;;;;;;;8.52;2.08;;;;;;;;;;6150398;23;20041;-50
2022/08/23 08:34:20;;;;;;;9.95;1.88;;;;;;;;;;6150621;23;20053;-54
2022/08/23 08:37:14;;;;;;;3.33;1.80;;;;;;;;;;6150701;23;20084;-54
2022/08/23 08:40:01;;;;;;;4.32;1.75;;;;;;;;;;6149679;23;20025;-51
2022/08/23 08:43:21;;;;;;;9.00;1.88;;;;;;;;;;6148308;23;20025;-52
2022/08/23 08:46:13;;;;;;;3.50;1.27;;;;;;;;;;6149545;23;20068;-56
2022/08/23 08:49:12;;;;;;;5.38;1.60;;;;;;;;;;6150222;23;20057;-57
2022/08/23 08:52:18;;;;;;;4.10;1.52;;;;;;;;;;6150105;23;20097;-57
2022/08/23 08:55:32;;;;;;;5.47;1.73;;;;;;;;;;6149894;23;20033;-53
2022/08/23 08:58:25;;;;;;;9.43;2.00;;;;;;;;;;6150831;23;20022;-62
2022/08/23 09:01:21;;;;;;;7.60;1.23;;;;;;;;;;6149135;23;20400;-59
2022/08/23 09:04:10;;;;;;;4.97;1.42;;;;;;;;;;6148979;23;20026;-54
2022/08/23 09:07:14;;;;;;;3.70;1.38;;;;;;;;;;6149307;23;20056;-52
2022/08/23 09:10:10;;;;;;;3.50;1.30;;;;;;;;;;6149629;23;20032;-51
2022/08/23 09:13:22;;;;;;;6.03;1.40;;;;;;;;;;6150229;23;20021;-50
2022/08/23 09:16:21;;;;;;;5.40;1.70;;;;;;;;;;6150012;23;20025;-51
2022/08/23 09:19:16;;;;;;;5.75;1.52;;;;;;;;;;6149342;23;20502;-62
2022/08/23 09:22:12;;;;;;;3.03;1.70;;;;;;;;;;6148716;23;20026;-55
2022/08/23 09:25:05;;;;;;;4.05;1.50;;;;;;;;;;6149112;23;20053;-56
2022/08/23 09:27:52;;;;;;;5.68;2.15;;;;;;;;;;6150556;23;20017;-54
2022/08/23 09:30:46;;;;;;;4.40;1.80;;;;;;;;;;6149049;23;20526;-54
2022/08/23 09:33:39;;;;;;;5.13;1.80;;;;;;;;;;6149473;23;20055;-52
2022/08/23 09:36:34;;;;;;;5.38;2.15;;;;;;;;;;6150800;23;20072;-61
2022/08/23 09:39:26;;;;;;;8.85;2.25;;;;;;;;;;6150059;23;20354;-60
2022/08/23 09:42:35;;;;;;;7.78;2.45;;;;;;;;;;6148103;23;20018;-57
2022/08/23 09:45:30;;;;;;;5.65;2.20;;;;;;;;;;6148649;23;20022;-55
2022/08/23 09:48:35;;;;;;;8.60;2.70;;;;;;;;;;6150637;23;20021;-57
2022/08/23 09:51:29;;;;;;;6.25;2.45;;;;;;;;;;6149991;23;20029;-58
2022/08/23 09:54:28;;;;;;;6.20;2.03;;;;;;;;;;6149189;23;20064;-56
2022/08/23 09:57:22;;;;;;;5.40;1.80;;;;;;;;;;6149480;23;20021;-60
2022/08/23 10:00:16;;;;;;;6.57;2.28;;;;;;;;;;6149719;23;20022;-56
2022/08/23 10:03:21;;;;;;;3.88;1.85;;;;;;;;;;6151809;23;20029;-56
2022/08/23 10:06:28;;;;;;;4.80;2.00;;;;;;;;;;6152033;23;20080;-53
2022/08/23 10:09:24;;;;;;;8.57;2.40;;;;;;;;;;6149723;23;20025;-54
2022/08/23 10:12:18;;;;;;;6.10;1.63;;;;;;;;;;6151786;23;20030;-55
2022/08/23 10:15:08;;;;;;;4.03;1.60;;;;;;;;;;6151993;23;20017;-60
2022/08/23 10:18:06;;;;;;;6.40;1.92;;;;;;;;;;6152278;23;20021;-56
2022/08/23 10:21:02;;;;;;;3.13;1.50;;;;;;;;;;6151361;23;20022;-55
2022/08/23 10:24:09;;;;;;;5.28;1.50;;;;;;;;;;6151389;23;20026;-54
2022/08/23 10:26:59;;;;;;;9.70;2.30;;;;;;;;;;6152110;23;20076;-54
2022/08/23 10:29:56;;;;;;;4.63;1.80;;;;;;;;;;6151201;23;20455;-53
2022/08/23 10:32:59;;;;;;;4.40;2.03;;;;;;;;;;6151929;23;20028;-54
2022/08/23 10:35:54;;;;;;;6.75;1.95;;;;;;;;;;6151447;23;20021;-53
2022/08/23 10:38:45;;;;;;;8.05;1.83;;;;;;;;;;6151437;23;20026;-51
2022/08/23 10:41:53;;;;;;;4.38;1.60;;;;;;;;;;6151254;23;20057;-53
2022/08/23 10:45:09;;;;;;;8.63;1.77;;;;;;;;;;6092781;23;20101;-52
2022/08/23 10:48:03;;;;;;;4.30;1.85;;;;;;;;;;6092556;23;20026;-50
2022/08/23 10:50:59;;;;;;;6.43;1.90;;;;;;;;;;6093011;23;20074;-53
2022/08/23 10:54:23;;;;;;;6.18;1.52;;;;;;;;;;6092181;23;20042;-56
2022/08/23 10:57:06;;;;;;;4.57;1.20;;;;;;;;;;6092486;23;20026;-53
2022/08/23 10:59:59;;;;;;;7.20;1.88;;;;;;;;;;6091870;23;20053;-55
2022/08/23 11:02:54;;;;;;;3.95;1.73;;;;;;;;;;6093222;23;20082;-54
2022/08/23 11:06:11;;;;;;;4.25;1.75;;;;;;;;;;6092512;23;20018;-52
2022/08/23 11:09:00;;;;;;;4.80;1.40;;;;;;;;;;6092134;23;20050;-54
2022/08/23 11:12:12;;;;;;;5.38;1.67;;;;;;;;;;6092089;23;20469;-55
2022/08/23 11:15:09;;;;;;;4.05;1.40;;;;;;;;;;6091225;23;20065;-54
2022/08/23 11:18:30;;;;;;;6.53;2.00;;;;;;;;;;6092607;23;20029;-56
2022/08/23 11:21:18;;;;;;;3.92;1.55;;;;;;;;;;6089123;23;20027;-58
2022/08/23 11:24:12;;;;;;;3.90;1.38;;;;;;;;;;6091827;23;20033;-58
2022/08/23 11:27:01;;;;;;;8.65;1.75;;;;;;;;;;6091965;23;20058;-56
2022/08/23 11:29:55;;;;;;;6.75;2.08;;;;;;;;;;6090754;23;20543;-56
2022/08/23 11:32:44;;;;;;;4.03;1.80;;;;;;;;;;6092746;23;20026;-52
2022/08/23 11:35:41;;;;;;;8.57;1.60;;;;;;;;;;6091368;23;20030;-68
2022/08/23 11:38:43;;;;;;;4.00;1.33;;;;;;;;;;6092371;23;20022;-68
2022/08/23 11:41:55;;;;;;;4.07;1.27;;;;;;;;;;6092635;23;20034;-68
2022/08/23 11:44:52;;;;;;;5.93;1.50;;;;;;;;;;6150455;23;20494;-68
2022/08/23 11:47:49;;;;;;;3.90;1.40;;;;;;;;;;6150718;23;20022;-68
2022/08/23 11:50:44;;;;;;;6.40;1.83;;;;;;;;;;6151074;23;20025;-61
2022/08/23 11:53:41;;;;;;;5.78;1.30;;;;;;;;;;6150750;23;20460;-61
2022/08/23 11:56:37;;;;;;;7.22;1.40;;;;;;;;;;6149741;23;20029;-61
2022/08/23 11:59:57;;;;;;;3.75;1.63;;;;;;;;;;6150261;23;20395;-61
2022/08/23 12:03:00;;;;;;;4.93;1.40;;;;;;;;;;6150877;23;20614;-61
2022/08/23 12:05:52;;;;;;;3.53;1.13;;;;;;;;;;6150109;23;20029;-61
2022/08/23 12:08:45;;;;;;;4.35;1.20;;;;;;;;;;6149540;23;20534;-57
2022/08/23 12:11:54;;;;;;;4.43;1.45;;;;;;;;;;6150805;23;20021;-68
2022/08/23 12:14:45;;;;;;;3.80;1.40;;;;;;;;;;6150097;23;20022;-60
2022/08/23 12:17:39;;;;;;;8.02;1.65;;;;;;;;;;6150968;23;20474;-58
2022/08/23 12:20:28;;;;;;;2.65;1.20;;;;;;;;;;6150213;23;20459;-59
2022/08/23 12:23:22;;;;;;;5.95;2.03;;;;;;;;;;6150691;23;20073;-60
2022/08/23 12:26:13;;;;;;;3.33;1.27;;;;;;;;;;6150043;23;20080;-60
2022/08/23 12:29:25;;;;;;;3.67;1.20;;;;;;;;;;6149876;23;20052;-68
2022/08/23 12:32:18;;;;;;;2.42;1.00;;;;;;;;;;6150381;23;20060;-59
2022/08/23 12:35:24;;;;;;;4.65;1.33;;;;;;;;;;6150295;23;20025;-59
2022/08/23 12:38:27;;;;;;;3.90;1.00;;;;;;;;;;6149743;23;20025;-59
2022/08/23 12:41:28;;;;;;;7.00;1.77;;;;;;;;;;6150033;23;20061;-59
2022/08/23 12:44:25;;;;;;;4.88;1.17;;;;;;;;;;6148015;23;20029;-60
2022/08/23 12:47:20;;;;;;;4.88;1.23;;;;;;;;;;6151135;23;20376;-56
2022/08/23 12:50:09;;;;;;;8.45;1.48;;;;;;;;;;6149977;23;20479;-56
2022/08/23 12:53:14;;;;;;;6.82;1.30;;;;;;;;;;6149637;23;20029;-61
2022/08/23 12:56:03;;;;;;;4.07;1.42;;;;;;;;;;6150232;23;20021;-61
2022/08/23 12:59:01;;;;;;;6.18;1.50;;;;;;;;;;6149592;23;20058;-61
2022/08/23 13:01:47;;;;;;;4.88;1.38;;;;;;;;;;6149940;23;20022;-61
2022/08/23 13:04:42;;;;;;;5.05;1.35;;;;;;;;;;6149877;23;20091;-62
2022/08/23 13:07:28;;;;;;;3.22;1.17;;;;;;;;;;6150142;23;20021;-51
2022/08/23 13:10:22;;;;;;;4.13;1.40;;;;;;;;;;6149926;23;20045;-60
2022/08/23 13:13:10;;;;;;;2.47;1.00;;;;;;;;;;6148960;23;20021;-59
2022/08/23 13:16:23;;;;;;;4.13;1.15;;;;;;;;;;6149991;23;20045;-59
2022/08/23 13:19:17;;;;;;;5.10;1.52;;;;;;;;;;6150324;23;20363;-59
2022/08/23 13:22:11;;;;;;;8.73;1.70;;;;;;;;;;6149501;23;20022;-59
2022/08/23 13:25:04;;;;;;;2.55;1.25;;;;;;;;;;6148960;23;20033;-51
2022/08/23 13:28:01;;;;;;;6.07;1.58;;;;;;;;;;6149776;23;20025;-57
2022/08/23 13:31:07;;;;;;;3.83;1.48;;;;;;;;;;6149194;23;20467;-53
2022/08/23 13:34:01;;;;;;;5.35;1.52;;;;;;;;;;6149072;23;20017;-51
2022/08/23 13:36:49;;;;;;;3.45;1.38;;;;;;;;;;6150054;23;20025;-54
2022/08/23 13:39:58;;;;;;;4.32;1.40;;;;;;;;;;6151633;23;20076;-54
2022/08/23 13:42:51;;;;;;;2.92;1.30;;;;;;;;;;6149163;23;20452;-56
2022/08/23 13:45:53;;;;;;;5.72;1.38;;;;;;;;;;6151926;23;20687;-57
2022/08/23 13:48:45;;;;;;;4.20;1.42;;;;;;;;;;6151539;23;20356;-67
2022/08/23 13:51:40;;;;;;;4.40;1.55;;;;;;;;;;6151125;23;20029;-67
2022/08/23 13:54:48;;;;;;;5.30;1.60;;;;;;;;;;6151134;23;20544;-67
2022/08/23 13:57:42;;;;;;;4.93;1.50;;;;;;;;;;6151626;23;20029;-66
2022/08/23 14:00:30;;;;;;;4.43;1.23;;;;;;;;;;6151721;23;20022;-67
2022/08/23 14:03:27;;;;;;;3.80;1.45;;;;;;;;;;6151842;23;20100;-60
2022/08/23 14:06:14;;;;;;;3.40;1.30;;;;;;;;;;6151313;23;20102;-53
2022/08/23 14:09:15;;;;;;;6.03;1.80;;;;;;;;;;6151201;23;20538;-58
2022/08/23 14:12:04;;;;;;;4.20;1.50;;;;;;;;;;6151413;23;20053;-60
2022/08/23 14:15:02;;;;;;;5.93;1.20;;;;;;;;;;6151297;23;20048;-59
2022/08/23 14:18:10;;;;;;;2.30;1.23;;;;;;;;;;6150929;23;20557;-58
2022/08/23 14:21:03;;;;;;;4.80;1.10;;;;;;;;;;6149706;23;20056;-59
2022/08/23 14:23:50;;;;;;;4.32;1.27;;;;;;;;;;6150284;23;20026;-53
2022/08/23 14:26:44;;;;;;;5.03;1.20;;;;;;;;;;6151085;23;20032;-56
2022/08/23 14:29:31;;;;;;;6.18;1.33;;;;;;;;;;6150387;23;20025;-56
2022/08/23 14:32:25;;;;;;;5.30;1.60;;;;;;;;;;6152508;23;20021;-54
2022/08/23 14:35:12;;;;;;;6.22;1.60;;;;;;;;;;6149537;23;20021;-55
2022/08/23 14:38:06;;;;;;;6.47;1.50;;;;;;;;;;6149816;23;20475;-56
2022/08/23 14:40:57;;;;;;;2.88;1.38;;;;;;;;;;6150959;23;20069;-57
2022/08/23 14:43:58;;;;;;;6.07;1.55;;;;;;;;;;6148475;23;20088;-57
2022/08/23 14:46:55;;;;;;;5.35;1.83;;;;;;;;;;6151959;23;20018;-60
2022/08/23 14:49:49;;;;;;;3.40;1.50;;;;;;;;;;6150360;23;20362;-60
2022/08/23 14:52:37;;;;;;;5.15;1.60;;;;;;;;;;6150972;23;20084;-60
2022/08/23 14:55:31;;;;;;;5.53;1.40;;;;;;;;;;6151202;23;20468;-60
2022/08/23 14:58:39;;;;;;;10.98;1.95;;;;;;;;;;6150482;23;20057;-60
2022/08/23 15:01:32;;;;;;;6.43;1.95;;;;;;;;;;6151208;23;20017;-57
2022/08/23 15:04:21;;;;;;;5.03;1.70;;;;;;;;;;6151590;23;20048;-53
2022/08/23 15:07:14;;;;;;;4.25;1.52;;;;;;;;;;6151349;23;20076;-50
2022/08/23 15:10:01;;;;;;;4.63;1.70;;;;;;;;;;6150244;23;20076;-50
2022/08/23 15:13:15;;;;;;;5.60;1.95;;;;;;;;;;6149067;23;20026;-49
2022/08/23 15:16:21;;;;;;;5.75;1.83;;;;;;;;;;6150222;23;20021;-54
2022/08/23 15:19:16;;;;;;;6.07;1.75;;;;;;;;;;6150583;23;20028;-57
2022/08/23 15:22:05;;;;;;;5.22;1.70;;;;;;;;;;6148122;23;20400;-56
2022/08/23 15:25:10;;;;;;;3.97;1.60;;;;;;;;;;6150170;23;20188;-59
2022/08/23 15:27:57;;;;;;;5.57;1.60;;;;;;;;;;6148154;23;20025;-58
2022/08/23 15:30:36;;;;;;;7.18;1.83;;;;;;;;;;6150565;23;20029;-57
2022/08/23 15:33:04;;;;;;;;;;;;;;;;;;6152503;23;20375;-55
2022/08/23 15:35:39;;;;;;;5.22;1.52;;;;;;;;;;6149817;23;19916;-56
2022/08/23 15:38:08;;;;;;;4.05;1.70;;;;;;;;;;6151404;23;20032;-60
2022/08/23 15:40:35;;;;;;;6.50;1.55;;;;;;;;;;6151696;23;20022;-65
2022/08/23 15:43:38;;;;;;;4.18;1.50;;;;;;;;;;6149509;23;20403;-55
2022/08/23 15:46:16;;;;;;;7.00;1.77;;;;;;;;;;6150222;23;20384;-55
2022/08/23 15:48:53;;;;;;;5.38;1.80;;;;;;;;;;6148353;23;20403;-57
2022/08/23 15:51:21;;;;;;;3.22;1.40;;;;;;;;;;6150258;23;20095;-53
2022/08/23 15:54:15;;;;;;;3.53;1.45;;;;;;;;;;6151162;23;20072;-56
2022/08/23 15:57:03;;;;;;;3.90;1.70;;;;;;;;;;6149044;23;20443;-57
2022/08/23 15:59:56;;;;;;;4.18;1.90;;;;;;;;;;6151218;23;20021;-56
2022/08/23 16:02:44;;;;;;;5.63;1.48;;;;;;;;;;6151852;23;20391;-65
2022/08/23 16:05:47;;;;;;;7.50;1.80;;;;;;;;;;6147852;23;20100;-64
2022/08/23 16:08:21;;;;;;;9.65;1.85;;;;;;;;;;6149574;23;20048;-65
2022/08/23 16:10:56;;;;;;;6.25;1.95;;;;;;;;;;6148714;23;20302;-64
2022/08/23 16:13:24;;;;;;;6.65;1.70;;;;;;;;;;6150173;23;20872;-63
2022/08/23 16:15:51;;;;;;;5.75;1.77;;;;;;;;;;6149270;23;20029;-58
2022/08/23 16:18:25;;;;;;;4.10;1.80;;;;;;;;;;6148989;23;20021;-49
2022/08/23 16:20:52;;;;;;;;;;;;;;;;;;6150877;23;20029;-64
2022/08/23 16:23:20;;;;;;;5.70;1.63;;;;;;;;;;6150056;23;19963;-64
2022/08/23 16:25:54;;;;;;;6.22;1.60;;;;;;;;;;6149470;23;20080;-65
2022/08/23 16:28:27;;;;;;;4.60;1.90;;;;;;;;;;6150411;23;20021;-64
2022/08/23 16:31:01;;;;;;;5.25;1.90;;;;;;;;;;6150720;23;20029;-64
2022/08/23 16:33:28;;;;;;;3.92;1.98;;;;;;;;;;6149910;23;20396;-64
2022/08/23 16:36:22;;;;;;;7.22;1.98;;;;;;;;;;6149679;23;20028;-53
2022/08/23 16:39:10;;;;;;;5.22;1.63;;;;;;;;;;6149155;23;20021;-48
2022/08/23 16:42:05;;;;;;;8.15;1.73;;;;;;;;;;6148746;23;20022;-50
2022/08/23 16:44:58;;;;;;;4.57;1.63;;;;;;;;;;6146775;23;20022;-49
2022/08/23 16:47:52;;;;;;;7.35;2.03;;;;;;;;;;6149722;23;20026;-48
2022/08/23 16:50:41;;;;;;;10.38;1.80;;;;;;;;;;6150317;23;20100;-48